sensor_id;sensor_type;location;lat;lon;timestamp;P1;durP1;ratioP1;P2;durP2;ratioP2
69161;SDS011;56269;51.738;21.652;2022-09-09T00:17:12;15.07;;;7.63;;
69161;SDS011;56269;51.738;21.652;2022-09-09T00:22:25;19.10;;;8.27;;
69161;SDS011;56269;51.738;21.652;2022-09-09T00:24:54;18.95;;;8.48;;
69161;SDS011;56269;51.738;21.652;2022-09-09T00:27:28;16.92;;;7.63;;
69161;SDS011;56269;51.738;21.652;2022-09-09T00:32:45;18.70;;;8.67;;
69161;SDS011;56269;51.738;21.652;2022-09-09T00:37:50;11.93;;;6.00;;
69161;SDS011;56269;51.738;21.652;2022-09-09T00:40:24;16.48;;;7.63;;
69161;SDS011;56269;51.738;21.652;2022-09-09T00:43:21;18.38;;;7.72;;
69161;SDS011;56269;51.738;21.652;2022-09-09T00:48:50;17.63;;;8.43;;
69161;SDS011;56269;51.738;21.652;2022-09-09T00:51:25;19.27;;;8.90;;
69161;SDS011;56269;51.738;21.652;2022-09-09T00:57:25;17.05;;;8.10;;
69161;SDS011;56269;51.738;21.652;2022-09-09T01:02:49;21.88;;;9.27;;
69161;SDS011;56269;51.738;21.652;2022-09-09T01:05:42;21.55;;;9.30;;
69161;SDS011;56269;51.738;21.652;2022-09-09T01:11:02;25.60;;;10.50;;
69161;SDS011;56269;51.738;21.652;2022-09-09T01:13:29;18.47;;;7.60;;
69161;SDS011;56269;51.738;21.652;2022-09-09T01:16:00;19.40;;;8.45;;
69161;SDS011;56269;51.738;21.652;2022-09-09T01:18:32;14.63;;;6.82;;
69161;SDS011;56269;51.738;21.652;2022-09-09T01:27:02;19.10;;;8.67;;
69161;SDS011;56269;51.738;21.652;2022-09-09T01:29:27;21.42;;;9.55;;
69161;SDS011;56269;51.738;21.652;2022-09-09T01:32:00;20.35;;;10.30;;
69161;SDS011;56269;51.738;21.652;2022-09-09T01:34:29;23.35;;;11.02;;
69161;SDS011;56269;51.738;21.652;2022-09-09T01:37:10;14.85;;;7.47;;
69161;SDS011;56269;51.738;21.652;2022-09-09T01:39:39;23.00;;;11.43;;
69161;SDS011;56269;51.738;21.652;2022-09-09T01:42:09;22.55;;;11.02;;
69161;SDS011;56269;51.738;21.652;2022-09-09T01:44:37;23.35;;;11.75;;
69161;SDS011;56269;51.738;21.652;2022-09-09T01:47:04;24.40;;;11.75;;
69161;SDS011;56269;51.738;21.652;2022-09-09T01:49:31;21.02;;;10.00;;
69161;SDS011;56269;51.738;21.652;2022-09-09T01:52:00;16.00;;;7.20;;
69161;SDS011;56269;51.738;21.652;2022-09-09T01:54:28;20.00;;;10.25;;
69161;SDS011;56269;51.738;21.652;2022-09-09T01:59:41;24.00;;;11.57;;
69161;SDS011;56269;51.738;21.652;2022-09-09T02:02:35;18.33;;;9.02;;
69161;SDS011;56269;51.738;21.652;2022-09-09T02:07:42;18.60;;;8.77;;
69161;SDS011;56269;51.738;21.652;2022-09-09T02:10:23;19.27;;;9.63;;
69161;SDS011;56269;51.738;21.652;2022-09-09T02:12:58;19.35;;;8.73;;
69161;SDS011;56269;51.738;21.652;2022-09-09T02:15:32;19.83;;;9.02;;
69161;SDS011;56269;51.738;21.652;2022-09-09T02:18:08;20.37;;;11.10;;
69161;SDS011;56269;51.738;21.652;2022-09-09T02:20:38;20.52;;;10.23;;
69161;SDS011;56269;51.738;21.652;2022-09-09T02:23:06;19.35;;;8.80;;
69161;SDS011;56269;51.738;21.652;2022-09-09T02:25:34;20.98;;;10.82;;
69161;SDS011;56269;51.738;21.652;2022-09-09T02:28:03;24.52;;;10.57;;
69161;SDS011;56269;51.738;21.652;2022-09-09T02:30:32;17.40;;;8.27;;
69161;SDS011;56269;51.738;21.652;2022-09-09T02:33:01;14.50;;;7.03;;
69161;SDS011;56269;51.738;21.652;2022-09-09T02:35:30;15.45;;;7.32;;
69161;SDS011;56269;51.738;21.652;2022-09-09T02:38:04;19.75;;;9.35;;
69161;SDS011;56269;51.738;21.652;2022-09-09T02:40:33;20.80;;;9.70;;
69161;SDS011;56269;51.738;21.652;2022-09-09T02:42:59;17.20;;;9.40;;
69161;SDS011;56269;51.738;21.652;2022-09-09T02:45:34;17.48;;;8.23;;
69161;SDS011;56269;51.738;21.652;2022-09-09T02:48:10;18.38;;;9.63;;
69161;SDS011;56269;51.738;21.652;2022-09-09T02:53:17;21.77;;;11.63;;
69161;SDS011;56269;51.738;21.652;2022-09-09T02:55:49;15.00;;;8.10;;
69161;SDS011;56269;51.738;21.652;2022-09-09T02:58:26;18.25;;;9.32;;
69161;SDS011;56269;51.738;21.652;2022-09-09T03:00:52;19.77;;;10.07;;
69161;SDS011;56269;51.738;21.652;2022-09-09T03:03:19;18.48;;;9.52;;
69161;SDS011;56269;51.738;21.652;2022-09-09T03:05:46;20.00;;;9.70;;
69161;SDS011;56269;51.738;21.652;2022-09-09T03:08:12;21.73;;;10.27;;
69161;SDS011;56269;51.738;21.652;2022-09-09T03:10:38;22.00;;;10.85;;
69161;SDS011;56269;51.738;21.652;2022-09-09T03:13:05;22.20;;;10.80;;
69161;SDS011;56269;51.738;21.652;2022-09-09T03:15:32;19.38;;;9.35;;
69161;SDS011;56269;51.738;21.652;2022-09-09T03:17:58;21.05;;;10.70;;
69161;SDS011;56269;51.738;21.652;2022-09-09T03:20:25;21.13;;;10.70;;
69161;SDS011;56269;51.738;21.652;2022-09-09T03:22:53;21.85;;;11.10;;
69161;SDS011;56269;51.738;21.652;2022-09-09T03:25:20;19.42;;;10.43;;
69161;SDS011;56269;51.738;21.652;2022-09-09T03:27:49;20.98;;;11.20;;
69161;SDS011;56269;51.738;21.652;2022-09-09T03:30:18;22.90;;;10.50;;
69161;SDS011;56269;51.738;21.652;2022-09-09T03:32:45;22.00;;;11.50;;
69161;SDS011;56269;51.738;21.652;2022-09-09T03:35:12;21.35;;;10.70;;
69161;SDS011;56269;51.738;21.652;2022-09-09T03:37:38;17.40;;;8.52;;
69161;SDS011;56269;51.738;21.652;2022-09-09T03:40:04;16.15;;;7.72;;
69161;SDS011;56269;51.738;21.652;2022-09-09T03:42:32;23.02;;;10.77;;
69161;SDS011;56269;51.738;21.652;2022-09-09T03:44:58;17.13;;;9.57;;
69161;SDS011;56269;51.738;21.652;2022-09-09T03:47:24;19.45;;;10.45;;
69161;SDS011;56269;51.738;21.652;2022-09-09T03:49:51;20.30;;;10.15;;
69161;SDS011;56269;51.738;21.652;2022-09-09T03:52:17;24.67;;;11.93;;
69161;SDS011;56269;51.738;21.652;2022-09-09T03:54:43;19.33;;;8.17;;
69161;SDS011;56269;51.738;21.652;2022-09-09T03:57:10;18.55;;;9.00;;
69161;SDS011;56269;51.738;21.652;2022-09-09T03:59:36;17.90;;;8.90;;
69161;SDS011;56269;51.738;21.652;2022-09-09T04:02:03;18.73;;;10.18;;
69161;SDS011;56269;51.738;21.652;2022-09-09T04:04:29;18.90;;;8.70;;
69161;SDS011;56269;51.738;21.652;2022-09-09T04:06:55;20.10;;;9.47;;
69161;SDS011;56269;51.738;21.652;2022-09-09T04:09:21;20.98;;;10.43;;
69161;SDS011;56269;51.738;21.652;2022-09-09T04:11:47;21.58;;;8.88;;
69161;SDS011;56269;51.738;21.652;2022-09-09T04:14:14;19.35;;;10.10;;
69161;SDS011;56269;51.738;21.652;2022-09-09T04:16:40;20.57;;;10.03;;
69161;SDS011;56269;51.738;21.652;2022-09-09T04:19:10;19.08;;;9.13;;
69161;SDS011;56269;51.738;21.652;2022-09-09T04:21:39;19.27;;;10.55;;
69161;SDS011;56269;51.738;21.652;2022-09-09T04:24:07;17.33;;;9.27;;
69161;SDS011;56269;51.738;21.652;2022-09-09T04:26:34;17.25;;;8.13;;
69161;SDS011;56269;51.738;21.652;2022-09-09T04:29:02;20.73;;;9.47;;
69161;SDS011;56269;51.738;21.652;2022-09-09T04:31:29;15.02;;;7.28;;
69161;SDS011;56269;51.738;21.652;2022-09-09T04:33:55;16.95;;;8.77;;
69161;SDS011;56269;51.738;21.652;2022-09-09T04:36:21;25.67;;;10.32;;
69161;SDS011;56269;51.738;21.652;2022-09-09T04:38:48;17.42;;;9.00;;
69161;SDS011;56269;51.738;21.652;2022-09-09T04:41:16;13.83;;;7.27;;
69161;SDS011;56269;51.738;21.652;2022-09-09T04:43:42;18.33;;;9.00;;
69161;SDS011;56269;51.738;21.652;2022-09-09T04:46:09;19.42;;;10.38;;
69161;SDS011;56269;51.738;21.652;2022-09-09T04:48:35;14.10;;;7.07;;
69161;SDS011;56269;51.738;21.652;2022-09-09T04:51:02;18.23;;;8.83;;
69161;SDS011;56269;51.738;21.652;2022-09-09T04:53:31;19.30;;;9.27;;
69161;SDS011;56269;51.738;21.652;2022-09-09T04:56:01;14.55;;;8.10;;
69161;SDS011;56269;51.738;21.652;2022-09-09T04:58:37;17.50;;;8.85;;
69161;SDS011;56269;51.738;21.652;2022-09-09T05:01:09;18.02;;;9.27;;
69161;SDS011;56269;51.738;21.652;2022-09-09T05:03:37;20.07;;;10.40;;
69161;SDS011;56269;51.738;21.652;2022-09-09T05:06:07;20.38;;;10.18;;
69161;SDS011;56269;51.738;21.652;2022-09-09T05:08:36;19.77;;;10.38;;
69161;SDS011;56269;51.738;21.652;2022-09-09T05:11:03;20.67;;;10.85;;
69161;SDS011;56269;51.738;21.652;2022-09-09T05:13:37;18.27;;;9.65;;
69161;SDS011;56269;51.738;21.652;2022-09-09T05:16:03;19.00;;;10.17;;
69161;SDS011;56269;51.738;21.652;2022-09-09T05:18:29;20.92;;;11.30;;
69161;SDS011;56269;51.738;21.652;2022-09-09T05:20:59;18.33;;;9.73;;
69161;SDS011;56269;51.738;21.652;2022-09-09T05:26:18;21.97;;;9.53;;
69161;SDS011;56269;51.738;21.652;2022-09-09T05:28:46;18.55;;;10.30;;
69161;SDS011;56269;51.738;21.652;2022-09-09T05:31:13;19.42;;;10.00;;
69161;SDS011;56269;51.738;21.652;2022-09-09T05:33:40;19.85;;;9.93;;
69161;SDS011;56269;51.738;21.652;2022-09-09T05:36:18;16.92;;;7.75;;
69161;SDS011;56269;51.738;21.652;2022-09-09T05:38:46;17.37;;;9.33;;
69161;SDS011;56269;51.738;21.652;2022-09-09T05:41:12;19.33;;;10.00;;
69161;SDS011;56269;51.738;21.652;2022-09-09T05:43:43;20.65;;;11.02;;
69161;SDS011;56269;51.738;21.652;2022-09-09T05:46:11;16.73;;;7.63;;
69161;SDS011;56269;51.738;21.652;2022-09-09T05:48:39;19.73;;;10.23;;
69161;SDS011;56269;51.738;21.652;2022-09-09T05:51:10;19.63;;;10.20;;
69161;SDS011;56269;51.738;21.652;2022-09-09T05:53:41;18.73;;;10.55;;
69161;SDS011;56269;51.738;21.652;2022-09-09T05:56:12;18.00;;;9.25;;
69161;SDS011;56269;51.738;21.652;2022-09-09T05:58:39;18.45;;;10.20;;
69161;SDS011;56269;51.738;21.652;2022-09-09T06:03:34;19.33;;;10.73;;
69161;SDS011;56269;51.738;21.652;2022-09-09T06:06:06;20.60;;;10.40;;
69161;SDS011;56269;51.738;21.652;2022-09-09T06:08:34;18.30;;;9.52;;
69161;SDS011;56269;51.738;21.652;2022-09-09T06:11:06;17.02;;;8.98;;
69161;SDS011;56269;51.738;21.652;2022-09-09T06:13:36;22.95;;;12.00;;
69161;SDS011;56269;51.738;21.652;2022-09-09T06:16:04;22.43;;;10.67;;
69161;SDS011;56269;51.738;21.652;2022-09-09T06:18:33;23.50;;;11.93;;
69161;SDS011;56269;51.738;21.652;2022-09-09T06:21:02;23.50;;;12.52;;
69161;SDS011;56269;51.738;21.652;2022-09-09T06:23:36;27.50;;;15.13;;
69161;SDS011;56269;51.738;21.652;2022-09-09T06:26:04;28.20;;;14.63;;
69161;SDS011;56269;51.738;21.652;2022-09-09T06:28:36;21.97;;;12.13;;
69161;SDS011;56269;51.738;21.652;2022-09-09T06:31:07;23.02;;;12.52;;
69161;SDS011;56269;51.738;21.652;2022-09-09T06:33:39;19.70;;;10.32;;
69161;SDS011;56269;51.738;21.652;2022-09-09T06:36:10;22.25;;;11.60;;
69161;SDS011;56269;51.738;21.652;2022-09-09T06:38:38;22.45;;;12.27;;
69161;SDS011;56269;51.738;21.652;2022-09-09T06:41:04;23.40;;;11.27;;
69161;SDS011;56269;51.738;21.652;2022-09-09T06:43:31;22.33;;;12.32;;
69161;SDS011;56269;51.738;21.652;2022-09-09T06:46:08;23.02;;;12.55;;
69161;SDS011;56269;51.738;21.652;2022-09-09T06:48:42;22.45;;;11.90;;
69161;SDS011;56269;51.738;21.652;2022-09-09T06:51:16;23.08;;;13.38;;
69161;SDS011;56269;51.738;21.652;2022-09-09T06:53:45;24.30;;;12.77;;
69161;SDS011;56269;51.738;21.652;2022-09-09T06:59:04;25.67;;;14.10;;
69161;SDS011;56269;51.738;21.652;2022-09-09T07:01:31;23.92;;;12.95;;
69161;SDS011;56269;51.738;21.652;2022-09-09T07:04:01;24.80;;;12.85;;
69161;SDS011;56269;51.738;21.652;2022-09-09T07:06:31;24.20;;;12.63;;
69161;SDS011;56269;51.738;21.652;2022-09-09T07:08:59;25.08;;;13.40;;
69161;SDS011;56269;51.738;21.652;2022-09-09T07:11:30;23.75;;;13.13;;
69161;SDS011;56269;51.738;21.652;2022-09-09T07:13:59;23.90;;;13.15;;
69161;SDS011;56269;51.738;21.652;2022-09-09T07:16:27;22.25;;;12.50;;
69161;SDS011;56269;51.738;21.652;2022-09-09T07:18:55;23.93;;;12.20;;
69161;SDS011;56269;51.738;21.652;2022-09-09T07:21:25;23.73;;;12.98;;
69161;SDS011;56269;51.738;21.652;2022-09-09T07:23:54;22.90;;;13.23;;
69161;SDS011;56269;51.738;21.652;2022-09-09T07:26:21;20.73;;;11.85;;
69161;SDS011;56269;51.738;21.652;2022-09-09T07:28:49;27.20;;;12.75;;
69161;SDS011;56269;51.738;21.652;2022-09-09T07:31:20;21.07;;;11.10;;
69161;SDS011;56269;51.738;21.652;2022-09-09T07:33:48;22.33;;;13.23;;
69161;SDS011;56269;51.738;21.652;2022-09-09T07:36:19;24.10;;;12.98;;
69161;SDS011;56269;51.738;21.652;2022-09-09T07:38:48;28.17;;;14.20;;
69161;SDS011;56269;51.738;21.652;2022-09-09T07:41:33;25.67;;;13.43;;
69161;SDS011;56269;51.738;21.652;2022-09-09T07:44:21;24.87;;;13.43;;
69161;SDS011;56269;51.738;21.652;2022-09-09T07:46:51;21.15;;;11.85;;
69161;SDS011;56269;51.738;21.652;2022-09-09T07:49:17;24.58;;;14.25;;
69161;SDS011;56269;51.738;21.652;2022-09-09T07:51:44;22.83;;;12.50;;
69161;SDS011;56269;51.738;21.652;2022-09-09T07:54:12;28.13;;;13.65;;
69161;SDS011;56269;51.738;21.652;2022-09-09T07:56:41;23.73;;;12.93;;
69161;SDS011;56269;51.738;21.652;2022-09-09T07:59:08;26.95;;;14.27;;
69161;SDS011;56269;51.738;21.652;2022-09-09T08:01:37;25.98;;;13.50;;
69161;SDS011;56269;51.738;21.652;2022-09-09T08:04:18;26.20;;;14.43;;
69161;SDS011;56269;51.738;21.652;2022-09-09T08:06:47;22.38;;;12.40;;
69161;SDS011;56269;51.738;21.652;2022-09-09T08:09:15;27.93;;;13.57;;
69161;SDS011;56269;51.738;21.652;2022-09-09T08:11:42;25.20;;;13.57;;
69161;SDS011;56269;51.738;21.652;2022-09-09T08:14:11;26.45;;;14.20;;
69161;SDS011;56269;51.738;21.652;2022-09-09T08:16:38;26.85;;;14.23;;
69161;SDS011;56269;51.738;21.652;2022-09-09T08:19:07;25.65;;;13.82;;
69161;SDS011;56269;51.738;21.652;2022-09-09T08:21:36;27.43;;;14.57;;
69161;SDS011;56269;51.738;21.652;2022-09-09T08:24:04;24.00;;;12.02;;
69161;SDS011;56269;51.738;21.652;2022-09-09T08:26:39;23.58;;;13.50;;
69161;SDS011;56269;51.738;21.652;2022-09-09T08:29:09;27.00;;;13.98;;
69161;SDS011;56269;51.738;21.652;2022-09-09T08:31:38;26.92;;;14.43;;
69161;SDS011;56269;51.738;21.652;2022-09-09T08:34:06;27.17;;;14.03;;
69161;SDS011;56269;51.738;21.652;2022-09-09T08:36:35;25.58;;;12.95;;
69161;SDS011;56269;51.738;21.652;2022-09-09T08:39:05;26.33;;;13.18;;
69161;SDS011;56269;51.738;21.652;2022-09-09T08:41:55;24.58;;;12.95;;
69161;SDS011;56269;51.738;21.652;2022-09-09T08:49:59;30.50;;;14.75;;
69161;SDS011;56269;51.738;21.652;2022-09-09T08:52:47;28.10;;;14.30;;
69161;SDS011;56269;51.738;21.652;2022-09-09T09:09:08;33.60;;;16.63;;
69161;SDS011;56269;51.738;21.652;2022-09-09T09:11:44;29.77;;;15.80;;
69161;SDS011;56269;51.738;21.652;2022-09-09T09:14:23;31.17;;;15.47;;
69161;SDS011;56269;51.738;21.652;2022-09-09T09:17:00;23.77;;;12.55;;
69161;SDS011;56269;51.738;21.652;2022-09-09T09:19:29;25.13;;;12.25;;
69161;SDS011;56269;51.738;21.652;2022-09-09T09:29:50;29.58;;;14.18;;
69161;SDS011;56269;51.738;21.652;2022-09-09T09:32:20;29.90;;;14.93;;
69161;SDS011;56269;51.738;21.652;2022-09-09T09:34:53;28.27;;;14.05;;
69161;SDS011;56269;51.738;21.652;2022-09-09T09:37:31;26.27;;;13.48;;
69161;SDS011;56269;51.738;21.652;2022-09-09T09:40:10;30.10;;;15.43;;
69161;SDS011;56269;51.738;21.652;2022-09-09T09:42:38;27.10;;;13.20;;
69161;SDS011;56269;51.738;21.652;2022-09-09T09:45:32;28.70;;;14.93;;
69161;SDS011;56269;51.738;21.652;2022-09-09T09:48:02;29.17;;;15.27;;
69161;SDS011;56269;51.738;21.652;2022-09-09T09:50:30;31.77;;;16.00;;
69161;SDS011;56269;51.738;21.652;2022-09-09T09:52:59;29.77;;;14.10;;
69161;SDS011;56269;51.738;21.652;2022-09-09T09:55:31;33.10;;;15.70;;
69161;SDS011;56269;51.738;21.652;2022-09-09T09:58:01;32.90;;;15.77;;
69161;SDS011;56269;51.738;21.652;2022-09-09T10:00:29;38.47;;;18.75;;
69161;SDS011;56269;51.738;21.652;2022-09-09T10:02:59;42.75;;;21.77;;
69161;SDS011;56269;51.738;21.652;2022-09-09T10:05:26;42.27;;;19.77;;
69161;SDS011;56269;51.738;21.652;2022-09-09T10:08:11;54.33;;;25.45;;
69161;SDS011;56269;51.738;21.652;2022-09-09T10:13:13;42.80;;;20.60;;
69161;SDS011;56269;51.738;21.652;2022-09-09T10:15:47;43.58;;;21.60;;
69161;SDS011;56269;51.738;21.652;2022-09-09T10:30:07;31.30;;;15.65;;
69161;SDS011;56269;51.738;21.652;2022-09-09T10:35:39;32.22;;;16.00;;
69161;SDS011;56269;51.738;21.652;2022-09-09T10:41:09;31.25;;;16.55;;
69161;SDS011;56269;51.738;21.652;2022-09-09T10:57:48;25.27;;;10.93;;
69161;SDS011;56269;51.738;21.652;2022-09-09T11:00:24;31.83;;;15.30;;
69161;SDS011;56269;51.738;21.652;2022-09-09T11:03:01;33.88;;;16.58;;
69161;SDS011;56269;51.738;21.652;2022-09-09T11:08:14;23.15;;;11.85;;
69161;SDS011;56269;51.738;21.652;2022-09-09T11:16:34;40.13;;;17.98;;
69161;SDS011;56269;51.738;21.652;2022-09-09T11:22:02;39.20;;;17.73;;
69161;SDS011;56269;51.738;21.652;2022-09-09T11:25:05;37.08;;;17.52;;
69161;SDS011;56269;51.738;21.652;2022-09-09T11:28:24;43.53;;;19.00;;
69161;SDS011;56269;51.738;21.652;2022-09-09T11:33:51;46.83;;;21.05;;
69161;SDS011;56269;51.738;21.652;2022-09-09T11:44:53;54.80;;;22.25;;
69161;SDS011;56269;51.738;21.652;2022-09-09T11:49:52;41.92;;;20.83;;
69161;SDS011;56269;51.738;21.652;2022-09-09T11:52:36;45.63;;;20.17;;
69161;SDS011;56269;51.738;21.652;2022-09-09T11:55:09;47.57;;;21.07;;
69161;SDS011;56269;51.738;21.652;2022-09-09T11:57:37;44.35;;;19.20;;
69161;SDS011;56269;51.738;21.652;2022-09-09T12:00:04;45.22;;;18.20;;
69161;SDS011;56269;51.738;21.652;2022-09-09T12:02:34;44.83;;;17.77;;
69161;SDS011;56269;51.738;21.652;2022-09-09T12:05:04;48.92;;;19.15;;
69161;SDS011;56269;51.738;21.652;2022-09-09T12:07:37;49.07;;;20.93;;
69161;SDS011;56269;51.738;21.652;2022-09-09T12:12:54;47.33;;;21.00;;
69161;SDS011;56269;51.738;21.652;2022-09-09T12:15:28;49.15;;;19.20;;
69161;SDS011;56269;51.738;21.652;2022-09-09T12:18:02;45.97;;;19.57;;
69161;SDS011;56269;51.738;21.652;2022-09-09T12:20:40;42.13;;;17.33;;
69161;SDS011;56269;51.738;21.652;2022-09-09T12:23:46;53.88;;;21.10;;
69161;SDS011;56269;51.738;21.652;2022-09-09T12:26:25;51.83;;;20.30;;
69161;SDS011;56269;51.738;21.652;2022-09-09T12:29:15;53.53;;;21.73;;
69161;SDS011;56269;51.738;21.652;2022-09-09T12:32:11;55.70;;;21.77;;
69161;SDS011;56269;51.738;21.652;2022-09-09T12:34:51;49.50;;;18.83;;
69161;SDS011;56269;51.738;21.652;2022-09-09T12:37:27;53.85;;;20.52;;
69161;SDS011;56269;51.738;21.652;2022-09-09T12:39:57;51.45;;;20.95;;
69161;SDS011;56269;51.738;21.652;2022-09-09T12:42:26;50.78;;;19.67;;
69161;SDS011;56269;51.738;21.652;2022-09-09T12:44:54;56.73;;;20.50;;
69161;SDS011;56269;51.738;21.652;2022-09-09T12:47:23;49.13;;;19.45;;
69161;SDS011;56269;51.738;21.652;2022-09-09T12:49:54;59.13;;;24.20;;
69161;SDS011;56269;51.738;21.652;2022-09-09T12:52:27;48.97;;;20.30;;
69161;SDS011;56269;51.738;21.652;2022-09-09T12:55:04;57.85;;;22.55;;
69161;SDS011;56269;51.738;21.652;2022-09-09T12:57:36;52.13;;;20.80;;
69161;SDS011;56269;51.738;21.652;2022-09-09T13:00:05;55.80;;;21.33;;
69161;SDS011;56269;51.738;21.652;2022-09-09T13:02:56;56.22;;;22.98;;
69161;SDS011;56269;51.738;21.652;2022-09-09T13:05:34;61.45;;;22.88;;
69161;SDS011;56269;51.738;21.652;2022-09-09T13:08:08;49.72;;;19.95;;
69161;SDS011;56269;51.738;21.652;2022-09-09T13:10:38;51.53;;;21.23;;
69161;SDS011;56269;51.738;21.652;2022-09-09T13:13:15;45.63;;;20.15;;
69161;SDS011;56269;51.738;21.652;2022-09-09T13:15:50;52.50;;;20.45;;
69161;SDS011;56269;51.738;21.652;2022-09-09T13:18:21;52.63;;;21.90;;
69161;SDS011;56269;51.738;21.652;2022-09-09T13:20:50;43.08;;;18.95;;
69161;SDS011;56269;51.738;21.652;2022-09-09T13:23:18;47.53;;;19.93;;
69161;SDS011;56269;51.738;21.652;2022-09-09T13:25:55;52.58;;;22.00;;
69161;SDS011;56269;51.738;21.652;2022-09-09T13:28:24;45.63;;;18.27;;
69161;SDS011;56269;51.738;21.652;2022-09-09T13:30:57;46.55;;;19.00;;
69161;SDS011;56269;51.738;21.652;2022-09-09T13:33:29;44.72;;;19.23;;
69161;SDS011;56269;51.738;21.652;2022-09-09T13:36:05;50.13;;;19.53;;
69161;SDS011;56269;51.738;21.652;2022-09-09T13:38:35;50.03;;;20.25;;
69161;SDS011;56269;51.738;21.652;2022-09-09T13:41:06;56.03;;;21.60;;
69161;SDS011;56269;51.738;21.652;2022-09-09T13:43:42;45.83;;;19.00;;
69161;SDS011;56269;51.738;21.652;2022-09-09T13:49:03;50.67;;;21.73;;
69161;SDS011;56269;51.738;21.652;2022-09-09T13:52:02;47.17;;;19.33;;
69161;SDS011;56269;51.738;21.652;2022-09-09T13:54:34;46.78;;;19.20;;
69161;SDS011;56269;51.738;21.652;2022-09-09T13:57:01;46.97;;;20.58;;
69161;SDS011;56269;51.738;21.652;2022-09-09T13:59:27;49.97;;;20.30;;
69161;SDS011;56269;51.738;21.652;2022-09-09T14:01:54;46.23;;;18.83;;
69161;SDS011;56269;51.738;21.652;2022-09-09T14:04:21;52.67;;;20.75;;
69161;SDS011;56269;51.738;21.652;2022-09-09T14:06:47;48.60;;;21.58;;
69161;SDS011;56269;51.738;21.652;2022-09-09T14:09:15;48.42;;;21.08;;
69161;SDS011;56269;51.738;21.652;2022-09-09T14:11:45;48.03;;;19.98;;
69161;SDS011;56269;51.738;21.652;2022-09-09T14:14:12;48.47;;;21.07;;
69161;SDS011;56269;51.738;21.652;2022-09-09T14:16:39;45.08;;;20.17;;
69161;SDS011;56269;51.738;21.652;2022-09-09T14:19:07;35.03;;;14.95;;
69161;SDS011;56269;51.738;21.652;2022-09-09T14:21:34;44.88;;;19.65;;
69161;SDS011;56269;51.738;21.652;2022-09-09T14:24:00;47.95;;;20.17;;
69161;SDS011;56269;51.738;21.652;2022-09-09T14:26:27;46.37;;;19.13;;
69161;SDS011;56269;51.738;21.652;2022-09-09T14:28:55;44.92;;;21.15;;
69161;SDS011;56269;51.738;21.652;2022-09-09T14:31:30;44.15;;;20.08;;
69161;SDS011;56269;51.738;21.652;2022-09-09T14:33:56;46.72;;;20.38;;
69161;SDS011;56269;51.738;21.652;2022-09-09T14:36:23;40.55;;;17.90;;
69161;SDS011;56269;51.738;21.652;2022-09-09T14:38:53;37.20;;;16.93;;
69161;SDS011;56269;51.738;21.652;2022-09-09T14:41:19;40.38;;;17.90;;
69161;SDS011;56269;51.738;21.652;2022-09-09T14:43:47;37.30;;;17.10;;
69161;SDS011;56269;51.738;21.652;2022-09-09T14:46:24;38.10;;;18.05;;
69161;SDS011;56269;51.738;21.652;2022-09-09T14:48:50;40.08;;;17.75;;
69161;SDS011;56269;51.738;21.652;2022-09-09T14:51:18;41.07;;;17.73;;
69161;SDS011;56269;51.738;21.652;2022-09-09T14:53:45;38.75;;;16.80;;
69161;SDS011;56269;51.738;21.652;2022-09-09T14:56:13;40.92;;;16.63;;
69161;SDS011;56269;51.738;21.652;2022-09-09T14:58:43;40.95;;;17.90;;
69161;SDS011;56269;51.738;21.652;2022-09-09T15:01:11;34.95;;;16.48;;
69161;SDS011;56269;51.738;21.652;2022-09-09T15:03:39;41.73;;;17.57;;
69161;SDS011;56269;51.738;21.652;2022-09-09T15:06:07;41.75;;;16.30;;
69161;SDS011;56269;51.738;21.652;2022-09-09T15:08:36;36.15;;;17.25;;
69161;SDS011;56269;51.738;21.652;2022-09-09T15:11:04;38.65;;;17.13;;
69161;SDS011;56269;51.738;21.652;2022-09-09T15:13:32;41.88;;;18.45;;
69161;SDS011;56269;51.738;21.652;2022-09-09T15:18:32;42.92;;;18.98;;
69161;SDS011;56269;51.738;21.652;2022-09-09T15:21:02;39.40;;;18.13;;
69161;SDS011;56269;51.738;21.652;2022-09-09T15:26:15;43.13;;;18.67;;
69161;SDS011;56269;51.738;21.652;2022-09-09T15:28:43;40.40;;;18.20;;
69161;SDS011;56269;51.738;21.652;2022-09-09T15:31:20;39.95;;;16.85;;
69161;SDS011;56269;51.738;21.652;2022-09-09T15:33:50;42.67;;;17.50;;
69161;SDS011;56269;51.738;21.652;2022-09-09T15:36:20;41.50;;;17.67;;
69161;SDS011;56269;51.738;21.652;2022-09-09T15:38:47;41.35;;;18.42;;
69161;SDS011;56269;51.738;21.652;2022-09-09T15:41:14;41.83;;;19.17;;
69161;SDS011;56269;51.738;21.652;2022-09-09T15:43:47;37.83;;;17.45;;
69161;SDS011;56269;51.738;21.652;2022-09-09T15:48:57;40.72;;;16.58;;
69161;SDS011;56269;51.738;21.652;2022-09-09T15:51:28;40.53;;;17.60;;
69161;SDS011;56269;51.738;21.652;2022-09-09T15:53:55;38.17;;;17.73;;
69161;SDS011;56269;51.738;21.652;2022-09-09T15:56:22;35.92;;;15.75;;
69161;SDS011;56269;51.738;21.652;2022-09-09T15:58:49;42.17;;;16.83;;
69161;SDS011;56269;51.738;21.652;2022-09-09T16:01:17;34.70;;;14.35;;
69161;SDS011;56269;51.738;21.652;2022-09-09T16:03:44;37.45;;;15.63;;
69161;SDS011;56269;51.738;21.652;2022-09-09T16:06:15;34.13;;;16.40;;
69161;SDS011;56269;51.738;21.652;2022-09-09T16:08:43;33.40;;;15.38;;
69161;SDS011;56269;51.738;21.652;2022-09-09T16:11:15;35.47;;;16.08;;
69161;SDS011;56269;51.738;21.652;2022-09-09T16:13:45;37.03;;;16.50;;
69161;SDS011;56269;51.738;21.652;2022-09-09T16:16:14;32.60;;;15.93;;
69161;SDS011;56269;51.738;21.652;2022-09-09T16:18:45;33.70;;;15.90;;
69161;SDS011;56269;51.738;21.652;2022-09-09T16:21:14;35.42;;;16.13;;
69161;SDS011;56269;51.738;21.652;2022-09-09T16:23:51;40.60;;;17.60;;
69161;SDS011;56269;51.738;21.652;2022-09-09T16:26:22;36.95;;;16.92;;
69161;SDS011;56269;51.738;21.652;2022-09-09T16:28:49;42.20;;;16.55;;
69161;SDS011;56269;51.738;21.652;2022-09-09T16:31:16;38.53;;;16.77;;
69161;SDS011;56269;51.738;21.652;2022-09-09T16:33:44;31.45;;;14.25;;
69161;SDS011;56269;51.738;21.652;2022-09-09T16:36:13;34.35;;;14.85;;
69161;SDS011;56269;51.738;21.652;2022-09-09T16:38:41;37.50;;;15.90;;
69161;SDS011;56269;51.738;21.652;2022-09-09T16:41:09;33.22;;;14.77;;
69161;SDS011;56269;51.738;21.652;2022-09-09T16:43:36;33.30;;;15.20;;
69161;SDS011;56269;51.738;21.652;2022-09-09T16:46:03;39.03;;;16.98;;
69161;SDS011;56269;51.738;21.652;2022-09-09T16:48:37;39.08;;;16.63;;
69161;SDS011;56269;51.738;21.652;2022-09-09T16:51:07;40.10;;;17.45;;
69161;SDS011;56269;51.738;21.652;2022-09-09T16:53:39;32.53;;;14.77;;
69161;SDS011;56269;51.738;21.652;2022-09-09T16:56:07;35.75;;;14.05;;
69161;SDS011;56269;51.738;21.652;2022-09-09T16:58:38;39.47;;;17.08;;
69161;SDS011;56269;51.738;21.652;2022-09-09T17:01:05;43.00;;;18.20;;
69161;SDS011;56269;51.738;21.652;2022-09-09T17:03:31;54.30;;;21.27;;
69161;SDS011;56269;51.738;21.652;2022-09-09T17:05:58;50.93;;;20.97;;
69161;SDS011;56269;51.738;21.652;2022-09-09T17:08:28;41.47;;;17.70;;
69161;SDS011;56269;51.738;21.652;2022-09-09T17:10:55;38.05;;;15.50;;